createdAt,value
2023-03-07T00:02:32.754Z,74.20
2023-03-07T00:05:06.135Z,73.00
2023-03-07T00:07:37.502Z,72.70
2023-03-07T00:10:09.006Z,71.50
2023-03-07T00:12:39.355Z,72.20
2023-03-07T00:15:10.926Z,72.20
2023-03-07T00:17:41.788Z,72.30
2023-03-07T00:20:16.275Z,73.10
2023-03-07T00:22:49.510Z,72.90
2023-03-07T00:25:20.102Z,72.80
2023-03-07T00:27:50.814Z,73.10
2023-03-07T00:30:23.161Z,72.70
2023-03-07T00:32:56.952Z,72.50
2023-03-07T00:35:29.763Z,71.30
2023-03-07T00:38:01.184Z,72.30
2023-03-07T00:40:31.906Z,71.50
2023-03-07T00:43:03.952Z,71.60
2023-03-07T00:45:35.750Z,71.40
2023-03-07T00:48:06.437Z,71.70
2023-03-07T00:50:45.202Z,71.10
2023-03-07T00:53:15.831Z,71.40
2023-03-07T00:55:57.105Z,71.60
2023-03-07T00:58:30.673Z,71.40
2023-03-07T01:01:01.899Z,71.40
2023-03-07T01:03:34.948Z,71.90
2023-03-07T01:06:09.577Z,72.30
2023-03-07T01:08:40.683Z,72.40
2023-03-07T01:11:13.172Z,73.00
2023-03-07T01:13:44.882Z,72.60
2023-03-07T01:16:18.064Z,73.10
2023-03-07T01:18:52.618Z,73.60
2023-03-07T01:21:28.972Z,72.70
2023-03-07T01:23:59.908Z,73.50
2023-03-07T01:26:32.447Z,73.00
2023-03-07T01:29:05.154Z,73.30
2023-03-07T01:31:36.385Z,73.90
2023-03-07T01:34:07.422Z,74.00
2023-03-07T01:36:39.642Z,73.20
2023-03-07T01:39:12.098Z,73.40
2023-03-07T01:41:43.225Z,73.50
2023-03-07T01:44:18.963Z,74.00
2023-03-07T01:46:54.546Z,74.00
2023-03-07T01:49:30.251Z,74.70
2023-03-07T01:52:10.665Z,74.90
2023-03-07T01:54:49.460Z,75.30
2023-03-07T01:57:24.474Z,74.80
2023-03-07T01:59:59.336Z,74.80
2023-03-07T02:02:30.539Z,75.30
2023-03-07T02:05:08.451Z,75.80
2023-03-07T02:07:48.698Z,75.80
2023-03-07T02:10:21.903Z,75.50
2023-03-07T02:12:54.363Z,75.10
2023-03-07T02:15:24.779Z,76.00
2023-03-07T02:17:56.669Z,76.10
2023-03-07T02:20:37.138Z,76.20
2023-03-07T02:23:15.247Z,76.20
2023-03-07T02:25:51.553Z,76.10
2023-03-07T02:28:24.000Z,77.00
2023-03-07T02:31:02.053Z,76.50
2023-03-07T02:33:32.674Z,76.70
2023-03-07T02:36:07.209Z,76.80
2023-03-07T02:38:40.660Z,77.20
2023-03-07T02:41:13.384Z,77.70
2023-03-07T02:43:50.171Z,77.70
2023-03-07T02:46:21.010Z,77.90
2023-03-07T02:48:52.046Z,78.20
2023-03-07T02:51:23.261Z,78.20
2023-03-07T02:53:53.648Z,78.30
2023-03-07T02:56:24.786Z,78.60
2023-03-07T02:58:56.934Z,79.00
2023-03-07T03:01:27.699Z,78.80
2023-03-07T03:03:59.553Z,78.80
2023-03-07T03:06:29.866Z,79.00
2023-03-07T03:09:00.932Z,79.10
2023-03-07T03:11:31.276Z,78.90
2023-03-07T03:14:03.679Z,79.50
2023-03-07T03:16:35.606Z,79.60
2023-03-07T03:19:06.547Z,79.30
2023-03-07T03:21:37.451Z,79.50
2023-03-07T03:24:11.526Z,79.60
2023-03-07T03:26:42.676Z,79.60
2023-03-07T03:29:16.622Z,80.00
2023-03-07T03:31:49.076Z,79.90
2023-03-07T03:34:19.902Z,80.10
2023-03-07T03:36:50.631Z,80.20
2023-03-07T03:39:21.254Z,80.60
2023-03-07T03:41:51.378Z,80.80
2023-03-07T03:44:25.299Z,80.80
2023-03-07T03:46:57.077Z,80.90
2023-03-07T03:49:28.643Z,80.90
2023-03-07T03:51:59.125Z,81.10
2023-03-07T03:54:29.349Z,81.30
2023-03-07T03:56:59.570Z,81.10
2023-03-07T03:59:32.313Z,81.20
2023-03-07T04:02:02.754Z,80.90
2023-03-07T04:04:33.040Z,81.90
2023-03-07T04:07:04.832Z,81.40
2023-03-07T04:09:35.718Z,82.30
2023-03-07T04:12:07.278Z,81.40
2023-03-07T04:14:39.264Z,82.60
2023-03-07T04:17:09.321Z,82.30
2023-03-07T04:19:39.443Z,82.10
2023-03-07T04:22:11.351Z,82.60
2023-03-07T04:24:41.604Z,82.60
2023-03-07T04:27:20.046Z,83.40
2023-03-07T04:29:51.911Z,84.00
2023-03-07T04:32:22.737Z,83.50
2023-03-07T04:34:52.823Z,82.80
2023-03-07T04:37:22.897Z,82.90
2023-03-07T04:39:52.991Z,82.80
2023-03-07T04:42:23.298Z,83.10
2023-03-07T04:44:55.695Z,83.40
2023-03-07T04:47:26.116Z,83.50
2023-03-07T04:49:56.282Z,84.20
2023-03-07T04:52:26.388Z,84.60
2023-03-07T04:54:56.501Z,85.10
2023-03-07T04:57:26.653Z,84.60
2023-03-07T04:59:59.206Z,85.40
2023-03-07T05:02:29.495Z,85.60
2023-03-07T05:04:59.797Z,86.20
2023-03-07T05:07:30.677Z,85.80
2023-03-07T05:10:01.875Z,85.70
2023-03-07T05:12:32.033Z,86.00
2023-03-07T05:15:03.780Z,85.40
2023-03-07T05:17:33.989Z,86.20
2023-03-07T05:20:04.650Z,86.50
2023-03-07T05:22:34.912Z,86.70
2023-03-07T05:25:05.143Z,86.90
2023-03-07T05:27:35.307Z,87.40
2023-03-07T05:30:07.972Z,87.70
2023-03-07T05:32:38.491Z,88.00
2023-03-07T05:35:10.498Z,88.30
2023-03-07T05:37:40.720Z,89.10
2023-03-07T05:40:12.207Z,88.90
2023-03-07T05:42:42.257Z,89.60
2023-03-07T05:45:14.754Z,90.10
2023-03-07T05:47:45.102Z,90.20
2023-03-07T05:50:15.639Z,90.50
2023-03-07T05:52:45.834Z,90.50
2023-03-07T05:55:16.539Z,90.40
2023-03-07T05:57:46.620Z,90.60
2023-03-07T06:00:19.719Z,90.50
2023-03-07T06:02:49.934Z,90.70
2023-03-07T06:05:20.369Z,90.70
2023-03-07T06:07:51.276Z,90.90
2023-03-07T06:10:21.699Z,90.90
2023-03-07T06:12:53.335Z,90.70
2023-03-07T06:15:25.630Z,90.70
2023-03-07T06:17:56.075Z,90.60
2023-03-07T06:20:26.268Z,90.50
2023-03-07T06:22:56.354Z,90.70
2023-03-07T06:25:26.529Z,90.90
2023-03-07T06:28:01.378Z,90.80
2023-03-07T06:30:33.232Z,90.90
2023-03-07T06:33:03.440Z,91.60
2023-03-07T06:35:33.609Z,91.30
2023-03-07T06:38:03.716Z,91.30
2023-03-07T06:40:34.059Z,91.40
2023-03-07T06:43:04.128Z,91.50
2023-03-07T06:45:35.993Z,91.60
2023-03-07T06:48:06.284Z,91.50
2023-03-07T06:50:36.830Z,91.80
2023-03-07T06:53:06.985Z,91.70
2023-03-07T06:55:37.241Z,92.10
2023-03-07T06:58:07.797Z,92.30
2023-03-07T07:00:39.531Z,92.50
2023-03-07T07:03:09.692Z,92.80
2023-03-07T07:05:39.859Z,93.00
2023-03-07T07:08:10.242Z,93.10
2023-03-07T07:10:41.055Z,93.30
2023-03-07T07:13:13.153Z,93.50
2023-03-07T07:15:44.861Z,93.60
2023-03-07T07:18:15.987Z,93.60
2023-03-07T07:20:46.168Z,93.80
2023-03-07T07:23:16.208Z,93.80
2023-03-07T07:25:46.335Z,94.00
2023-03-07T07:28:16.453Z,94.30
2023-03-07T07:30:48.179Z,94.00
2023-03-07T07:33:19.095Z,94.00
2023-03-07T07:35:49.589Z,93.90
2023-03-07T07:38:19.842Z,94.20
2023-03-07T07:40:49.984Z,94.20
2023-03-07T07:43:20.722Z,94.40
2023-03-07T07:45:52.632Z,94.60
2023-03-07T07:48:22.909Z,94.90
2023-03-07T07:50:53.080Z,95.00
2023-03-07T07:53:23.386Z,95.20
2023-03-07T07:55:53.544Z,95.20
2023-03-07T07:58:23.673Z,95.50
2023-03-07T08:00:55.443Z,95.60
2023-03-07T08:03:25.543Z,95.60
2023-03-07T08:05:55.818Z,95.90
2023-03-07T08:08:26.861Z,96.10
2023-03-07T08:10:57.145Z,96.10
2023-03-07T08:13:29.102Z,96.30
2023-03-07T08:16:00.822Z,96.50
2023-03-07T08:18:31.162Z,96.80
2023-03-07T08:21:02.877Z,96.90
2023-03-07T08:23:32.957Z,97.10
2023-03-07T08:26:06.343Z,97.50
2023-03-07T08:28:36.946Z,97.40
2023-03-07T08:31:12.562Z,97.80
2023-03-07T08:33:43.258Z,98.10
2023-03-07T08:36:13.434Z,98.20
2023-03-07T08:38:43.671Z,98.70
2023-03-07T08:41:13.815Z,98.80
2023-03-07T08:43:43.987Z,98.90
2023-03-07T08:46:15.910Z,98.90
2023-03-07T08:48:46.054Z,99.00
2023-03-07T08:51:17.872Z,99.20
2023-03-07T08:53:48.565Z,99.60
2023-03-07T08:56:20.330Z,99.70
2023-03-07T08:58:50.418Z,99.90
2023-03-07T09:01:22.395Z,99.90
2023-03-07T09:03:52.578Z,99.90
2023-03-07T09:06:24.210Z,99.90
2023-03-07T09:08:54.661Z,99.90
2023-03-07T09:11:24.879Z,99.90
2023-03-07T09:13:55.036Z,99.90
2023-03-07T09:16:26.917Z,99.90
2023-03-07T09:18:57.498Z,99.90
2023-03-07T09:21:27.908Z,99.90
2023-03-07T09:23:58.068Z,99.90
2023-03-07T09:26:28.165Z,99.90
2023-03-07T09:28:58.281Z,99.90
2023-03-07T09:31:30.186Z,99.90
2023-03-07T09:34:00.949Z,99.90
2023-03-07T09:36:31.133Z,99.90
2023-03-07T09:39:01.443Z,99.90
2023-03-07T09:41:54.852Z,99.90
2023-03-07T09:44:37.760Z,99.90
2023-03-07T09:47:27.206Z,99.90
2023-03-07T09:49:58.404Z,99.90
2023-03-07T09:52:32.344Z,99.90
2023-03-07T09:55:04.248Z,99.90
2023-03-07T09:57:36.775Z,99.90
2023-03-07T10:00:16.971Z,99.90
2023-03-07T10:02:51.766Z,99.90
2023-03-07T10:05:33.559Z,99.90
2023-03-07T10:08:06.065Z,99.90
2023-03-07T10:10:40.871Z,99.90
2023-03-07T10:13:24.838Z,99.90
2023-03-07T10:15:58.366Z,99.90
2023-03-07T10:18:48.153Z,99.90
2023-03-07T10:21:26.413Z,99.90
2023-03-07T10:24:24.807Z,99.90
2023-03-07T10:27:02.966Z,99.90
2023-03-07T10:29:40.304Z,99.90
2023-03-07T10:32:28.601Z,99.90
2023-03-07T10:35:07.164Z,99.90
2023-03-07T10:37:50.770Z,99.90
2023-03-07T10:40:27.079Z,99.90
2023-03-07T10:42:57.886Z,99.90
2023-03-07T10:45:31.892Z,99.90
2023-03-07T10:48:07.489Z,99.90
2023-03-07T10:50:46.070Z,99.90
2023-03-07T10:53:27.090Z,99.90
2023-03-07T10:56:12.925Z,99.90
2023-03-07T10:59:01.139Z,99.90
2023-03-07T11:01:32.000Z,99.90
2023-03-07T11:04:05.718Z,99.90
2023-03-07T11:06:42.094Z,99.90
2023-03-07T11:09:26.034Z,99.90
2023-03-07T11:11:59.004Z,99.90
2023-03-07T11:14:31.445Z,99.90
2023-03-07T11:17:03.002Z,99.90
2023-03-07T11:19:39.429Z,99.90
2023-03-07T11:22:23.088Z,99.90
2023-03-07T11:25:16.537Z,99.90
2023-03-07T11:27:53.659Z,99.90
2023-03-07T11:30:27.254Z,99.90
2023-03-07T11:33:04.381Z,99.90
2023-03-07T11:35:59.546Z,99.90
2023-03-07T11:38:43.358Z,99.90
2023-03-07T11:41:18.255Z,99.90
2023-03-07T11:44:11.009Z,99.90
2023-03-07T11:46:53.471Z,99.90
2023-03-07T11:49:48.620Z,99.90
2023-03-07T11:52:36.601Z,99.90
2023-03-07T11:55:23.319Z,99.90
2023-03-07T11:58:09.101Z,99.90
2023-03-07T12:00:54.674Z,99.90
2023-03-07T12:03:51.265Z,99.90
2023-03-07T12:06:31.317Z,99.90
2023-03-07T12:09:16.349Z,99.90
2023-03-07T12:12:24.673Z,99.90
2023-03-07T12:15:05.667Z,99.90
2023-03-07T12:17:52.545Z,99.90
2023-03-07T12:20:38.282Z,99.90
2023-03-07T12:23:18.415Z,99.90
2023-03-07T12:25:51.870Z,99.90
2023-03-07T12:28:28.375Z,99.90
2023-03-07T12:31:06.586Z,99.90
2023-03-07T12:33:51.231Z,99.90
2023-03-07T12:36:29.114Z,99.90
2023-03-07T12:39:05.887Z,99.90
2023-03-07T12:41:54.440Z,99.90
2023-03-07T12:44:35.924Z,99.90
2023-03-07T12:47:15.770Z,99.90
2023-03-07T12:49:55.855Z,99.90
2023-03-07T12:52:36.081Z,99.90
2023-03-07T12:55:17.675Z,99.90
2023-03-07T12:57:53.506Z,99.90
2023-03-07T13:00:26.764Z,99.90
2023-03-07T13:03:03.476Z,99.90
2023-03-07T13:05:35.842Z,99.90
2023-03-07T13:08:12.805Z,99.90
2023-03-07T13:10:48.316Z,99.90
2023-03-07T13:13:53.333Z,99.90
2023-03-07T13:16:45.129Z,99.90
2023-03-07T13:19:45.325Z,99.90
2023-03-07T13:22:48.266Z,99.90
2023-03-07T13:25:48.641Z,99.90
2023-03-07T13:28:58.200Z,99.90
2023-03-07T13:31:44.790Z,99.90
2023-03-07T13:34:52.095Z,99.90
2023-03-07T13:37:52.902Z,99.90
2023-03-07T13:40:51.449Z,99.90
2023-03-07T13:44:00.767Z,99.90
2023-03-07T13:47:06.563Z,99.90
2023-03-07T13:49:42.394Z,99.90
2023-03-07T13:52:27.842Z,99.90
2023-03-07T13:54:58.643Z,98.90
2023-03-07T13:57:36.576Z,98.80
2023-03-07T14:00:23.906Z,98.90
2023-03-07T14:02:57.126Z,98.50
2023-03-07T14:05:27.822Z,98.70
2023-03-07T14:07:59.856Z,98.40
2023-03-07T14:10:32.873Z,97.60
2023-03-07T14:13:36.224Z,97.70
2023-03-07T14:16:20.189Z,97.40
2023-03-07T14:19:08.459Z,97.70
2023-03-07T14:21:50.469Z,97.50
2023-03-07T14:24:40.574Z,97.20
2023-03-07T14:27:15.769Z,97.20
2023-03-07T14:29:53.226Z,97.40
2023-03-07T14:32:29.513Z,97.30
2023-03-07T14:35:02.163Z,96.50
2023-03-07T14:37:33.615Z,96.90
2023-03-07T14:40:27.857Z,96.70
2023-03-07T14:43:12.106Z,96.50
2023-03-07T14:45:45.434Z,96.50
2023-03-07T14:48:43.986Z,96.20
2023-03-07T14:51:19.765Z,96.00
2023-03-07T14:53:50.476Z,96.20
2023-03-07T14:56:24.929Z,96.50
2023-03-07T14:58:58.822Z,96.60
2023-03-07T15:01:36.139Z,96.60
2023-03-07T15:04:11.120Z,96.90
2023-03-07T15:06:48.373Z,97.10
2023-03-07T15:09:18.750Z,97.20
2023-03-07T15:11:55.022Z,96.90
2023-03-07T15:14:30.915Z,96.70
2023-03-07T15:17:04.518Z,96.90
2023-03-07T15:19:41.157Z,96.00
2023-03-07T15:22:20.989Z,95.90
2023-03-07T15:24:53.961Z,95.80
2023-03-07T15:27:27.853Z,96.00
2023-03-07T15:29:59.049Z,96.60
2023-03-07T15:32:35.045Z,97.80
2023-03-07T15:35:16.654Z,96.50
2023-03-07T15:37:59.233Z,96.30
2023-03-07T15:40:32.267Z,96.40
2023-03-07T15:43:17.464Z,96.30
2023-03-07T15:46:00.778Z,97.10
2023-03-07T15:48:37.928Z,97.00
2023-03-07T15:51:17.229Z,97.50
2023-03-07T15:53:57.911Z,97.40
2023-03-07T15:56:34.539Z,96.30
2023-03-07T15:59:21.007Z,95.60
2023-03-07T16:01:51.244Z,95.80
2023-03-07T16:04:40.283Z,95.20
2023-03-07T16:07:20.191Z,94.80
2023-03-07T16:09:51.950Z,94.60
2023-03-07T16:12:24.261Z,94.70
2023-03-07T16:14:56.001Z,94.80
2023-03-07T16:17:33.015Z,94.20
2023-03-07T16:20:03.295Z,94.90
2023-03-07T16:22:33.480Z,94.00
2023-03-07T16:25:06.502Z,94.10
2023-03-07T16:27:36.906Z,94.10
2023-03-07T16:30:14.596Z,94.30
2023-03-07T16:32:45.116Z,94.30
2023-03-07T16:35:19.802Z,93.90
2023-03-07T16:37:50.215Z,94.80
2023-03-07T16:40:23.576Z,94.30
2023-03-07T16:42:54.041Z,94.10
2023-03-07T16:45:26.892Z,93.60
2023-03-07T16:47:59.261Z,93.40
2023-03-07T16:50:32.354Z,93.30
2023-03-07T16:53:02.518Z,92.40
2023-03-07T16:55:34.932Z,93.30
2023-03-07T16:58:08.226Z,92.40
2023-03-07T17:00:38.592Z,92.90
2023-03-07T17:03:11.411Z,92.40
2023-03-07T17:05:41.574Z,92.20
2023-03-07T17:08:11.735Z,91.50
2023-03-07T17:10:45.610Z,91.70
2023-03-07T17:13:19.351Z,91.90
2023-03-07T17:15:50.607Z,92.50
2023-03-07T17:18:22.958Z,92.30
2023-03-07T17:20:53.320Z,92.50
2023-03-07T17:23:23.418Z,92.90
2023-03-07T17:25:55.441Z,93.20
2023-03-07T17:28:25.683Z,92.70
2023-03-07T17:30:55.881Z,92.50
2023-03-07T17:33:27.105Z,91.90
2023-03-07T17:35:58.755Z,93.20
2023-03-07T17:38:28.866Z,93.30
2023-03-07T17:41:00.613Z,93.00
2023-03-07T17:43:30.728Z,93.00
2023-03-07T17:46:00.998Z,93.40
2023-03-07T17:48:31.213Z,93.00
2023-03-07T17:51:01.378Z,92.70
2023-03-07T17:53:31.984Z,93.00
2023-03-07T17:56:11.158Z,93.30
2023-03-07T17:58:41.666Z,94.10
2023-03-07T18:01:12.057Z,93.20
2023-03-07T18:03:42.172Z,92.90
2023-03-07T18:06:12.637Z,93.40
2023-03-07T18:08:42.704Z,93.10
2023-03-07T18:11:15.934Z,93.30
2023-03-07T18:13:46.069Z,93.50
2023-03-07T18:16:16.327Z,93.50
2023-03-07T18:18:58.350Z,93.00
2023-03-07T18:21:30.466Z,92.80
2023-03-07T18:24:01.155Z,92.50
2023-03-07T18:26:32.998Z,92.60
2023-03-07T18:29:03.035Z,92.60
2023-03-07T18:31:33.404Z,92.60
2023-03-07T18:34:05.760Z,92.60
2023-03-07T18:36:36.176Z,92.70
2023-03-07T18:39:06.625Z,93.00
2023-03-07T18:41:38.480Z,93.30
2023-03-07T18:44:09.411Z,93.60
2023-03-07T18:46:39.717Z,93.00
2023-03-07T18:49:10.144Z,93.40
2023-03-07T18:51:40.872Z,92.90
2023-03-07T18:54:11.801Z,93.00
2023-03-07T18:56:43.957Z,92.70
2023-03-07T18:59:14.062Z,92.80
2023-03-07T19:01:44.377Z,93.10
2023-03-07T19:04:14.524Z,93.00
2023-03-07T19:06:48.309Z,92.60
2023-03-07T19:09:20.759Z,92.50
2023-03-07T19:11:52.874Z,92.60
2023-03-07T19:14:22.982Z,92.60
2023-03-07T19:16:53.241Z,93.00
2023-03-07T19:19:23.797Z,93.00
2023-03-07T19:21:58.720Z,92.80
2023-03-07T19:24:29.453Z,92.80
2023-03-07T19:27:01.317Z,93.80
2023-03-07T19:29:31.448Z,93.90
2023-03-07T19:32:01.932Z,93.80
2023-03-07T19:34:32.497Z,93.50
2023-03-07T19:37:02.632Z,93.90
2023-03-07T19:39:32.815Z,94.10
2023-03-07T19:42:05.043Z,94.10
2023-03-07T19:44:35.080Z,94.30
2023-03-07T19:47:05.245Z,94.70
2023-03-07T19:49:36.554Z,94.80
2023-03-07T19:52:06.765Z,94.80
2023-03-07T19:54:36.980Z,94.20
2023-03-07T19:57:09.886Z,94.60
2023-03-07T19:59:40.000Z,94.80
2023-03-07T20:02:18.436Z,95.00
2023-03-07T20:04:48.829Z,95.90
2023-03-07T20:07:22.218Z,96.00
2023-03-07T20:09:54.868Z,96.30
2023-03-07T20:12:26.618Z,96.50
2023-03-07T20:14:56.721Z,96.40
2023-03-07T20:17:26.983Z,96.80
2023-03-07T20:19:58.693Z,98.10
2023-03-07T20:22:29.210Z,98.30
2023-03-07T20:24:59.281Z,99.10
2023-03-07T20:27:31.378Z,99.90
2023-03-07T20:30:01.848Z,99.90
2023-03-07T20:32:32.467Z,99.90
2023-03-07T20:35:04.096Z,99.90
2023-03-07T20:37:36.677Z,99.90
2023-03-07T20:40:08.246Z,99.90
2023-03-07T20:42:39.971Z,99.90
2023-03-07T20:45:11.038Z,99.90
2023-03-07T20:47:41.648Z,99.90
2023-03-07T20:50:13.966Z,99.90
2023-03-07T20:52:44.124Z,99.90
2023-03-07T20:55:14.320Z,99.90
2023-03-07T20:57:46.060Z,99.90
2023-03-07T21:00:17.403Z,99.90
2023-03-07T21:02:48.315Z,99.90
2023-03-07T21:05:18.618Z,99.90
2023-03-07T21:07:48.966Z,99.90
2023-03-07T21:10:19.231Z,99.90
2023-03-07T21:12:51.414Z,99.90
2023-03-07T21:15:21.491Z,99.90
2023-03-07T21:17:52.306Z,99.90
2023-03-07T21:20:22.677Z,99.90
2023-03-07T21:22:52.890Z,99.90
2023-03-07T21:25:23.252Z,99.40
2023-03-07T21:27:55.066Z,99.70
2023-03-07T21:30:25.166Z,99.20
2023-03-07T21:32:58.745Z,98.50
2023-03-07T21:35:29.436Z,98.00
2023-03-07T21:37:59.574Z,97.80
2023-03-07T21:40:30.181Z,97.90
2023-03-07T21:43:01.915Z,97.60
2023-03-07T21:45:35.064Z,97.50
2023-03-07T21:48:05.387Z,97.90
2023-03-07T21:50:35.508Z,98.10
2023-03-07T21:53:05.642Z,97.60
2023-03-07T21:55:35.769Z,97.90
2023-03-07T21:58:07.606Z,97.80
2023-03-07T22:00:37.682Z,97.90
2023-03-07T22:03:07.877Z,97.80
2023-03-07T22:05:40.500Z,97.50
2023-03-07T22:08:10.732Z,98.00
2023-03-07T22:10:41.084Z,98.20
2023-03-07T22:13:13.676Z,98.40
2023-03-07T22:15:43.744Z,98.40
2023-03-07T22:18:13.875Z,97.80
2023-03-07T22:20:44.265Z,98.30
2023-03-07T22:23:14.478Z,98.70
2023-03-07T22:25:44.848Z,98.70
2023-03-07T22:28:20.033Z,99.10
2023-03-07T22:30:50.758Z,98.80
2023-03-07T22:33:21.205Z,98.90
2023-03-07T22:35:58.940Z,99.00
2023-03-07T22:38:29.720Z,99.30
2023-03-07T22:41:03.619Z,99.50
2023-03-07T22:43:36.574Z,99.10
2023-03-07T22:46:07.521Z,99.30
2023-03-07T22:48:37.896Z,99.50
2023-03-07T22:51:12.888Z,99.80
2023-03-07T22:53:43.373Z,99.90
2023-03-07T22:56:18.001Z,99.90
2023-03-07T22:58:49.988Z,99.90
2023-03-07T23:01:22.670Z,99.90
2023-03-07T23:03:54.015Z,99.90
2023-03-07T23:06:25.240Z,99.90
2023-03-07T23:08:55.963Z,99.90
2023-03-07T23:11:26.890Z,99.90
2023-03-07T23:13:58.578Z,99.90
2023-03-07T23:16:30.527Z,99.90
2023-03-07T23:19:01.888Z,99.90
2023-03-07T23:21:33.582Z,99.90
2023-03-07T23:24:05.524Z,99.90
2023-03-07T23:26:37.476Z,99.90
2023-03-07T23:29:12.293Z,99.90
2023-03-07T23:31:43.772Z,99.90
2023-03-07T23:34:18.583Z,99.90
2023-03-07T23:36:48.703Z,99.90
2023-03-07T23:39:19.747Z,99.90
2023-03-07T23:41:50.059Z,99.90
2023-03-07T23:44:21.851Z,99.90
2023-03-07T23:46:52.074Z,99.90
2023-03-07T23:49:22.210Z,99.90
2023-03-07T23:51:52.302Z,99.90
2023-03-07T23:54:22.442Z,99.90
2023-03-07T23:56:52.646Z,99.90
2023-03-07T23:59:24.413Z,99.90
